createdAt,value
2023-02-17T00:03:54.366Z,100465.47
2023-02-17T00:08:55.879Z,100463.06
2023-02-17T00:13:57.323Z,100477.72
2023-02-17T00:19:00.020Z,100466.56
2023-02-17T00:24:01.430Z,100476.78
2023-02-17T00:29:02.819Z,100470.00
2023-02-17T00:34:04.205Z,100456.94
2023-02-17T00:39:06.228Z,100451.47
2023-02-17T00:44:07.661Z,100453.13
2023-02-17T00:49:15.042Z,100450.88
2023-02-17T00:54:17.001Z,100459.78
2023-02-17T00:59:18.376Z,100440.06
2023-02-17T01:04:19.775Z,100446.81
2023-02-17T01:09:21.159Z,100451.69
2023-02-17T01:14:22.576Z,100455.63
2023-02-17T01:19:23.951Z,100441.25
2023-02-17T01:24:25.321Z,100436.50
2023-02-17T01:29:26.727Z,100435.88
2023-02-17T01:34:28.133Z,100426.63
2023-02-17T01:39:29.518Z,100417.75
2023-02-17T01:44:31.664Z,100421.28
2023-02-17T01:49:37.779Z,100420.69
2023-02-17T01:54:58.986Z,100424.13
2023-02-17T02:00:00.359Z,100421.16
2023-02-17T02:05:01.731Z,100404.06
2023-02-17T02:10:03.159Z,100400.50
2023-02-17T02:15:16.387Z,100387.69
2023-02-17T02:20:57.158Z,100377.44
2023-02-17T02:26:32.887Z,100348.31
2023-02-17T02:32:07.913Z,100339.41
2023-02-17T02:37:14.063Z,100325.88
2023-02-17T02:42:16.911Z,100323.13
2023-02-17T02:47:40.115Z,100314.34
2023-02-17T02:53:00.528Z,100308.75
2023-02-17T02:58:17.142Z,100294.13
2023-02-17T03:03:34.241Z,100289.03
2023-02-17T03:08:43.872Z,100295.94
2023-02-17T03:13:45.262Z,100293.06
2023-02-17T03:18:46.766Z,100306.00
2023-02-17T03:23:48.162Z,100294.25
2023-02-17T03:28:49.558Z,100289.50
2023-02-17T03:33:50.946Z,100289.28
2023-02-17T03:38:52.331Z,100284.63
2023-02-17T03:43:53.771Z,100279.88
2023-02-17T03:48:55.198Z,100282.25
2023-02-17T03:53:56.565Z,100289.16
2023-02-17T03:58:57.983Z,100285.72
2023-02-17T04:03:59.441Z,100270.38
2023-02-17T04:09:00.828Z,100274.16
2023-02-17T04:14:02.214Z,100279.78
2023-02-17T04:19:03.590Z,100285.47
2023-02-17T04:24:05.127Z,100275.00
2023-02-17T04:29:06.505Z,100281.91
2023-02-17T04:34:07.895Z,100254.81
2023-02-17T04:39:09.310Z,100261.22
2023-02-17T04:44:10.742Z,100258.97
2023-02-17T04:49:12.117Z,100261.34
2023-02-17T04:54:13.497Z,100252.66
2023-02-17T04:59:14.922Z,100238.16
2023-02-17T05:04:16.327Z,100229.84
2023-02-17T05:09:17.711Z,100235.09
2023-02-17T05:14:19.083Z,100228.91
2023-02-17T05:19:20.463Z,100237.09
2023-02-17T05:24:21.890Z,100238.31
2023-02-17T05:29:24.064Z,100232.00
2023-02-17T05:34:25.473Z,100227.50
2023-02-17T05:39:26.861Z,100228.66
2023-02-17T05:44:28.262Z,100232.09
2023-02-17T05:49:29.695Z,100224.16
2023-02-17T05:54:31.081Z,100219.50
2023-02-17T05:59:32.503Z,100213.72
2023-02-17T06:04:33.928Z,100197.53
2023-02-17T06:09:35.345Z,100216.91
2023-02-17T06:14:36.734Z,100203.47
2023-02-17T06:19:39.186Z,100206.66
2023-02-17T06:24:40.573Z,100214.88
2023-02-17T06:29:41.951Z,100205.34
2023-02-17T06:34:43.330Z,100204.19
2023-02-17T06:39:46.781Z,100212.00
2023-02-17T06:44:48.174Z,100217.22
2023-02-17T06:49:49.566Z,100199.31
2023-02-17T06:54:50.944Z,100212.84
2023-02-17T06:59:52.425Z,100207.13
2023-02-17T07:04:53.803Z,100198.81
2023-02-17T07:09:55.192Z,100209.13
2023-02-17T07:14:56.598Z,100203.31
2023-02-17T07:19:58.049Z,100212.56
2023-02-17T07:24:59.444Z,100204.34
2023-02-17T07:30:00.857Z,100210.16
2023-02-17T07:35:02.334Z,100208.34
2023-02-17T07:40:04.194Z,100199.91
2023-02-17T07:45:05.959Z,100181.00
2023-02-17T07:50:07.814Z,100181.56
2023-02-17T07:55:09.199Z,100181.69
2023-02-17T08:00:11.101Z,100167.06
2023-02-17T08:05:12.544Z,100179.19
2023-02-17T08:10:32.260Z,100188.47
2023-02-17T08:15:34.279Z,100197.50
2023-02-17T08:20:35.663Z,100201.78
2023-02-17T08:25:37.070Z,100203.19
2023-02-17T08:30:38.764Z,100199.03
2023-02-17T08:35:40.258Z,100198.06
2023-02-17T08:40:42.090Z,100200.69
2023-02-17T08:45:43.826Z,100192.47
2023-02-17T08:50:47.294Z,100194.50
2023-02-17T08:55:49.878Z,100185.69
2023-02-17T09:00:51.461Z,100183.28
2023-02-17T09:05:56.368Z,100178.16
2023-02-17T09:10:58.104Z,100151.88
2023-02-17T09:15:59.516Z,100142.00
2023-02-17T09:21:06.381Z,100135.63
2023-02-17T09:26:10.058Z,100130.22
2023-02-17T09:31:16.436Z,100132.69
2023-02-17T09:36:20.154Z,100130.72
2023-02-17T09:41:26.197Z,100128.56
2023-02-17T09:46:38.315Z,100129.41
2023-02-17T09:51:43.992Z,100105.34
2023-02-17T09:56:46.584Z,100097.41
2023-02-17T10:01:48.039Z,100075.25
2023-02-17T10:06:59.258Z,100075.16
2023-02-17T10:12:06.389Z,100057.41
2023-02-17T10:17:37.645Z,100073.19
2023-02-17T10:22:39.772Z,100073.69
2023-02-17T10:28:10.908Z,100065.47
2023-02-17T10:33:40.238Z,100042.16
2023-02-17T10:38:52.648Z,100022.41
2023-02-17T10:43:54.038Z,100007.09
2023-02-17T10:48:55.661Z,100008.56
2023-02-17T10:54:05.671Z,99992.16
2023-02-17T10:59:20.118Z,99993.25
2023-02-17T11:04:21.557Z,99981.47
2023-02-17T11:09:29.289Z,99961.13
2023-02-17T11:14:31.960Z,99943.88
2023-02-17T11:19:34.988Z,99957.56
2023-02-17T11:24:36.730Z,99925.16
2023-02-17T11:29:38.098Z,99912.38
2023-02-17T11:34:41.790Z,99900.38
2023-02-17T11:39:50.808Z,99884.47
2023-02-17T11:44:52.473Z,99886.13
2023-02-17T11:50:15.643Z,99892.91
2023-02-17T11:55:22.616Z,99862.91
2023-02-17T12:00:36.754Z,99859.31
2023-02-17T12:05:59.042Z,99866.44
2023-02-17T12:11:18.603Z,99850.63
2023-02-17T12:16:40.280Z,99833.53
2023-02-17T12:22:12.387Z,99825.94
2023-02-17T12:27:25.764Z,99825.09
2023-02-17T12:32:43.745Z,99802.44
2023-02-17T12:37:54.857Z,99800.53
2023-02-17T12:42:58.487Z,99786.00
2023-02-17T12:48:03.322Z,99770.16
2023-02-17T12:53:18.150Z,99773.16
2023-02-17T12:58:27.897Z,99772.31
2023-02-17T13:03:32.299Z,99764.16
2023-02-17T13:08:44.000Z,99754.56
2023-02-17T13:13:45.365Z,99744.50
2023-02-17T13:18:50.238Z,99746.16
2023-02-17T13:24:15.839Z,99753.34
2023-02-17T13:29:33.263Z,99745.38
2023-02-17T13:34:35.786Z,99725.25
2023-02-17T13:39:37.539Z,99723.34
2023-02-17T13:44:39.886Z,99714.31
2023-02-17T13:49:41.306Z,99701.13
2023-02-17T13:55:03.735Z,99683.09
2023-02-17T14:00:18.516Z,99673.25
2023-02-17T14:05:32.078Z,99686.63
2023-02-17T14:10:33.501Z,99693.16
2023-02-17T14:15:34.888Z,99661.50
2023-02-17T14:20:36.318Z,99661.69
2023-02-17T14:25:47.139Z,99662.31
2023-02-17T14:30:48.782Z,99658.75
2023-02-17T14:35:54.471Z,99662.84
2023-02-17T14:40:56.034Z,99649.41
2023-02-17T14:45:57.477Z,99653.56
2023-02-17T14:50:58.860Z,99663.34
2023-02-17T14:56:36.180Z,99638.16
2023-02-17T15:01:37.627Z,99639.81
2023-02-17T15:06:41.202Z,99624.84
2023-02-17T15:11:45.423Z,99618.44
2023-02-17T15:16:47.361Z,99621.59
2023-02-17T15:21:50.073Z,99639.47
2023-02-17T15:26:51.548Z,99657.94
2023-02-17T15:31:53.354Z,99709.69
2023-02-17T15:36:54.846Z,99708.78
2023-02-17T15:41:56.320Z,99703.25
2023-02-17T15:46:57.722Z,99670.75
2023-02-17T15:51:59.089Z,99699.91
2023-02-17T15:57:01.204Z,99708.59
2023-02-17T16:02:02.583Z,99704.22
2023-02-17T16:07:04.018Z,99713.16
2023-02-17T16:12:05.504Z,99685.41
2023-02-17T16:17:12.673Z,99702.38
2023-02-17T16:22:14.218Z,99690.38
2023-02-17T16:27:15.686Z,99678.59
2023-02-17T16:32:17.114Z,99700.13
2023-02-17T16:37:18.602Z,99689.38
2023-02-17T16:42:20.120Z,99696.19
2023-02-17T16:47:22.555Z,99709.84
2023-02-17T16:52:25.805Z,99700.31
2023-02-17T16:57:27.173Z,99694.28
2023-02-17T17:02:28.584Z,99704.97
2023-02-17T17:07:31.048Z,99680.88
2023-02-17T17:12:32.450Z,99691.22
2023-02-17T17:17:43.709Z,99706.97
2023-02-17T17:22:46.478Z,99685.63
2023-02-17T17:27:47.875Z,99713.78
2023-02-17T17:32:49.318Z,99721.75
2023-02-17T17:37:50.786Z,99726.16
2023-02-17T17:42:52.209Z,99729.41
2023-02-17T17:47:53.576Z,99744.31
2023-02-17T17:52:54.946Z,99755.13
2023-02-17T17:57:56.327Z,99762.53
2023-02-17T18:02:57.761Z,99759.31
2023-02-17T18:07:59.174Z,99779.91
2023-02-17T18:13:00.639Z,99786.69
2023-02-17T18:18:02.234Z,99783.38
2023-02-17T18:23:03.612Z,99795.63
2023-02-17T18:28:05.015Z,99828.88
2023-02-17T18:33:06.406Z,99861.94
2023-02-17T18:38:07.784Z,99842.88
2023-02-17T18:43:09.277Z,99874.34
2023-02-17T18:48:10.709Z,99888.84
2023-02-17T18:53:12.127Z,99889.94
2023-02-17T18:58:13.583Z,99898.28
2023-02-17T19:03:14.962Z,99882.59
2023-02-17T19:08:16.358Z,99893.28
2023-02-17T19:13:17.770Z,99896.69
2023-02-17T19:18:19.137Z,99901.44
2023-02-17T19:23:20.506Z,99889.59
2023-02-17T19:28:21.882Z,99881.53
2023-02-17T19:33:23.806Z,99910.03
2023-02-17T19:38:25.342Z,99900.16
2023-02-17T19:43:26.755Z,99917.13
2023-02-17T19:48:28.146Z,99911.66
2023-02-17T19:53:30.763Z,99913.00
2023-02-17T19:58:32.313Z,99923.00
2023-02-17T20:03:33.807Z,99926.22
2023-02-17T20:08:35.252Z,99911.84
2023-02-17T20:13:45.855Z,99920.13
2023-02-17T20:18:48.966Z,99925.09
2023-02-17T20:23:50.790Z,99922.25
2023-02-17T20:28:52.170Z,99919.44
2023-02-17T20:33:53.587Z,99920.75
2023-02-17T20:38:54.974Z,99929.50
2023-02-17T20:43:58.298Z,99922.50
2023-02-17T20:48:59.692Z,99930.44
2023-02-17T20:54:01.084Z,99939.97
2023-02-17T20:59:02.625Z,99949.72
2023-02-17T21:04:04.238Z,99948.31
2023-02-17T21:09:07.784Z,99942.09
2023-02-17T21:14:09.293Z,99937.84
2023-02-17T21:19:10.723Z,99961.31
2023-02-17T21:24:12.139Z,99966.69
2023-02-17T21:29:13.973Z,99977.03
2023-02-17T21:34:15.450Z,99973.69
2023-02-17T21:39:16.830Z,99978.94
2023-02-17T21:44:36.496Z,99992.94
2023-02-17T21:49:37.960Z,100011.81
2023-02-17T21:54:39.402Z,100030.34
2023-02-17T21:59:41.574Z,100049.13
2023-02-17T22:04:42.975Z,100063.03
2023-02-17T22:09:44.351Z,100080.00
2023-02-17T22:14:45.822Z,100127.00
2023-02-17T22:19:47.218Z,100135.81
2023-02-17T22:24:48.596Z,100131.63
2023-02-17T22:29:49.970Z,100129.63
2023-02-17T22:34:51.358Z,100136.00
2023-02-17T22:39:53.724Z,100134.03
2023-02-17T22:44:55.102Z,100131.63
2023-02-17T22:49:56.474Z,100157.53
2023-02-17T22:54:57.843Z,100138.66
2023-02-17T22:59:59.254Z,100155.13
2023-02-17T23:05:00.623Z,100159.31
2023-02-17T23:10:02.039Z,100175.81
2023-02-17T23:15:03.551Z,100178.69
2023-02-17T23:20:05.295Z,100179.16
2023-02-17T23:25:06.671Z,100197.06
2023-02-17T23:30:08.936Z,100176.28
2023-02-17T23:35:10.908Z,100188.41
2023-02-17T23:40:12.852Z,100182.47
2023-02-17T23:45:14.284Z,100188.41
2023-02-17T23:50:17.079Z,100193.41
2023-02-17T23:55:18.673Z,100201.94
